createdAt,value
2023-01-12T00:02:17.187Z,98624.09
2023-01-12T00:04:44.805Z,98629.08
2023-01-12T00:07:13.632Z,98623.23
2023-01-12T00:09:40.992Z,98624.75
2023-01-12T00:12:11.972Z,98620.35
2023-01-12T00:14:40.121Z,98618.78
2023-01-12T00:17:07.905Z,98622.52
2023-01-12T00:19:37.309Z,98621.11
2023-01-12T00:22:13.465Z,98622.30
2023-01-12T00:24:41.809Z,98620.19
2023-01-12T00:27:14.842Z,98615.58
2023-01-12T00:29:42.519Z,98617.14
2023-01-12T00:32:18.448Z,98617.79
2023-01-12T00:34:46.314Z,98620.81
2023-01-12T00:37:14.996Z,98616.96
2023-01-12T00:39:46.000Z,98623.84
2023-01-12T00:42:42.998Z,98625.15
2023-01-12T00:45:23.573Z,98632.41
2023-01-12T00:47:51.359Z,98631.60
2023-01-12T00:50:19.575Z,98635.61
2023-01-12T00:52:46.859Z,98630.36
2023-01-12T00:55:13.882Z,98630.26
2023-01-12T00:57:40.705Z,98629.00
2023-01-12T01:00:08.594Z,98627.71
2023-01-12T01:02:35.572Z,98631.89
2023-01-12T01:05:02.671Z,98636.27
2023-01-12T01:07:29.500Z,98639.09
2023-01-12T01:09:56.357Z,98638.98
2023-01-12T01:12:23.488Z,98633.73
2023-01-12T01:14:51.060Z,98641.38
2023-01-12T01:17:17.888Z,98639.49
2023-01-12T01:19:44.857Z,98637.27
2023-01-12T01:22:13.335Z,98641.45
2023-01-12T01:24:41.505Z,98636.72
2023-01-12T01:27:08.524Z,98639.98
2023-01-12T01:29:35.504Z,98640.26
2023-01-12T01:32:02.537Z,98641.45
2023-01-12T01:34:29.589Z,98643.63
2023-01-12T01:36:56.499Z,98638.41
2023-01-12T01:39:23.576Z,98642.17
2023-01-12T01:41:50.623Z,98641.84
2023-01-12T01:44:30.300Z,98647.42
2023-01-12T01:47:06.895Z,98646.73
2023-01-12T01:49:54.388Z,98641.74
2023-01-12T01:52:28.493Z,98645.86
2023-01-12T01:55:01.065Z,98643.58
2023-01-12T01:57:33.742Z,98644.83
2023-01-12T02:00:02.416Z,98647.10
2023-01-12T02:02:29.615Z,98644.71
2023-01-12T02:04:57.777Z,98646.95
2023-01-12T02:07:25.517Z,98648.84
2023-01-12T02:09:52.336Z,98648.63
2023-01-12T02:12:37.972Z,98654.11
2023-01-12T02:15:23.779Z,98656.48
2023-01-12T02:18:11.011Z,98661.00
2023-01-12T02:20:59.494Z,98664.73
2023-01-12T02:24:04.542Z,98665.98
2023-01-12T02:26:50.048Z,98662.90
2023-01-12T02:29:52.175Z,98664.30
2023-01-12T02:32:47.067Z,98659.46
2023-01-12T02:35:24.649Z,98656.88
2023-01-12T02:38:04.095Z,98663.34
2023-01-12T02:40:40.477Z,98670.98
2023-01-12T02:43:26.812Z,98672.34
2023-01-12T02:46:11.904Z,98675.92
2023-01-12T02:48:43.443Z,98674.73
2023-01-12T02:51:22.410Z,98671.04
2023-01-12T02:54:01.838Z,98672.99
2023-01-12T02:57:02.175Z,98673.76
2023-01-12T02:59:36.627Z,98673.16
2023-01-12T03:02:08.979Z,98670.39
2023-01-12T03:04:36.540Z,98664.64
2023-01-12T03:07:03.760Z,98661.21
2023-01-12T03:09:46.659Z,98661.55
2023-01-12T03:12:18.327Z,98664.79
2023-01-12T03:14:50.249Z,98668.15
2023-01-12T03:17:33.233Z,98671.64
2023-01-12T03:20:07.779Z,98673.75
2023-01-12T03:22:37.929Z,98679.11
2023-01-12T03:25:11.444Z,98680.96
2023-01-12T03:27:46.572Z,98679.99
2023-01-12T03:30:19.057Z,98675.60
2023-01-12T03:32:46.267Z,98682.04
2023-01-12T03:35:13.773Z,98680.92
2023-01-12T03:37:43.602Z,98677.88
2023-01-12T03:40:18.045Z,98678.36
2023-01-12T03:42:47.298Z,98675.48
2023-01-12T03:45:50.098Z,98676.04
2023-01-12T03:48:45.651Z,98677.88
2023-01-12T03:51:39.349Z,98669.80
2023-01-12T03:54:09.264Z,98667.25
2023-01-12T03:56:38.527Z,98666.04
2023-01-12T03:59:06.018Z,98673.80
2023-01-12T04:01:32.998Z,98669.84
2023-01-12T04:03:59.977Z,98660.14
2023-01-12T04:06:27.032Z,98663.60
2023-01-12T04:08:53.852Z,98668.15
2023-01-12T04:11:39.576Z,98672.05
2023-01-12T04:14:06.383Z,98672.06
2023-01-12T04:16:33.274Z,98665.44
2023-01-12T04:19:00.218Z,98672.39
2023-01-12T04:21:45.793Z,98673.90
2023-01-12T04:24:12.574Z,98679.16
2023-01-12T04:26:39.327Z,98680.64
2023-01-12T04:29:06.231Z,98689.27
2023-01-12T04:31:33.466Z,98692.41
2023-01-12T04:34:00.346Z,98698.42
2023-01-12T04:36:27.204Z,98696.43
2023-01-12T04:38:53.899Z,98691.60
2023-01-12T04:41:20.709Z,98690.94
2023-01-12T04:43:47.489Z,98695.89
2023-01-12T04:46:14.347Z,98696.97
2023-01-12T04:48:44.321Z,98694.59
2023-01-12T04:51:11.484Z,98696.27
2023-01-12T04:53:38.323Z,98693.61
2023-01-12T04:56:06.498Z,98691.98
2023-01-12T04:58:33.617Z,98693.98
2023-01-12T05:01:12.614Z,98697.73
2023-01-12T05:03:39.714Z,98705.48
2023-01-12T05:06:07.163Z,98704.40
2023-01-12T05:08:53.338Z,98703.20
2023-01-12T05:11:21.443Z,98710.68
2023-01-12T05:13:48.340Z,98708.31
2023-01-12T05:16:18.227Z,98701.36
2023-01-12T05:18:46.047Z,98700.60
2023-01-12T05:21:14.296Z,98700.92
2023-01-12T05:23:42.062Z,98701.20
2023-01-12T05:26:09.912Z,98700.05
2023-01-12T05:28:37.164Z,98703.91
2023-01-12T05:31:07.582Z,98709.94
2023-01-12T05:33:35.099Z,98704.66
2023-01-12T05:36:05.649Z,98702.01
2023-01-12T05:38:33.892Z,98706.51
2023-01-12T05:41:02.453Z,98709.64
2023-01-12T05:43:48.817Z,98711.97
2023-01-12T05:46:17.431Z,98713.01
2023-01-12T05:48:44.753Z,98712.63
2023-01-12T05:51:12.549Z,98710.89
2023-01-12T05:53:39.869Z,98710.94
2023-01-12T05:56:16.048Z,98716.74
2023-01-12T05:58:43.072Z,98720.77
2023-01-12T06:01:11.511Z,98725.04
2023-01-12T06:03:38.583Z,98726.02
2023-01-12T06:06:06.255Z,98719.61
2023-01-12T06:08:33.300Z,98718.39
2023-01-12T06:11:04.219Z,98729.44
2023-01-12T06:13:50.298Z,98743.21
2023-01-12T06:16:17.781Z,98741.97
2023-01-12T06:18:44.830Z,98736.71
2023-01-12T06:21:11.749Z,98737.74
2023-01-12T06:23:38.964Z,98745.23
2023-01-12T06:26:10.444Z,98741.05
2023-01-12T06:28:39.573Z,98736.92
2023-01-12T06:31:09.072Z,98732.95
2023-01-12T06:33:37.115Z,98727.54
2023-01-12T06:36:05.666Z,98728.52
2023-01-12T06:38:34.252Z,98736.16
2023-01-12T06:41:07.413Z,98739.46
2023-01-12T06:43:34.840Z,98740.05
2023-01-12T06:46:01.905Z,98741.09
2023-01-12T06:48:39.267Z,98744.02
2023-01-12T06:51:07.139Z,98742.77
2023-01-12T06:53:33.975Z,98742.86
2023-01-12T06:56:01.124Z,98741.83
2023-01-12T06:58:28.544Z,98743.51
2023-01-12T07:01:01.721Z,98747.62
2023-01-12T07:03:28.807Z,98747.23
2023-01-12T07:05:59.545Z,98748.04
2023-01-12T07:08:27.122Z,98744.41
2023-01-12T07:10:59.671Z,98740.45
2023-01-12T07:13:30.655Z,98734.11
2023-01-12T07:16:11.036Z,98733.39
2023-01-12T07:18:48.464Z,98737.58
2023-01-12T07:21:17.388Z,98736.21
2023-01-12T07:23:44.399Z,98739.98
2023-01-12T07:26:12.195Z,98747.94
2023-01-12T07:28:39.403Z,98750.96
2023-01-12T07:31:08.161Z,98749.41
2023-01-12T07:33:38.335Z,98745.88
2023-01-12T07:36:06.289Z,98742.50
2023-01-12T07:38:33.726Z,98745.02
2023-01-12T07:41:04.759Z,98741.92
2023-01-12T07:43:33.920Z,98743.92
2023-01-12T07:46:01.302Z,98739.43
2023-01-12T07:48:28.462Z,98744.42
2023-01-12T07:50:55.826Z,98748.93
2023-01-12T07:53:22.924Z,98752.20
2023-01-12T07:55:50.311Z,98751.23
2023-01-12T07:58:17.637Z,98747.23
2023-01-12T08:00:44.828Z,98743.61
2023-01-12T08:03:14.293Z,98744.94
2023-01-12T08:05:41.738Z,98748.09
2023-01-12T08:08:08.734Z,98750.20
2023-01-12T08:10:36.587Z,98750.88
2023-01-12T08:13:03.881Z,98754.48
2023-01-12T08:15:37.876Z,98759.45
2023-01-12T08:18:28.587Z,98754.26
2023-01-12T08:21:00.750Z,98752.81
2023-01-12T08:23:36.236Z,98749.56
2023-01-12T08:26:07.395Z,98748.25
2023-01-12T08:28:44.189Z,98757.14
2023-01-12T08:31:14.825Z,98755.73
2023-01-12T08:33:43.950Z,98744.66
2023-01-12T08:36:15.343Z,98748.58
2023-01-12T08:38:43.071Z,98755.84
2023-01-12T08:41:28.877Z,98752.81
2023-01-12T08:44:28.596Z,98746.56
2023-01-12T08:46:55.760Z,98746.06
2023-01-12T08:49:26.639Z,98749.83
2023-01-12T08:51:53.518Z,98750.87
2023-01-12T08:54:21.957Z,98752.95
2023-01-12T08:56:49.890Z,98753.27
2023-01-12T08:59:17.199Z,98753.20
2023-01-12T09:01:44.242Z,98741.05
2023-01-12T09:04:11.632Z,98748.25
2023-01-12T09:06:42.134Z,98748.36
2023-01-12T09:09:15.769Z,98753.56
2023-01-12T09:11:44.284Z,98753.02
2023-01-12T09:14:12.164Z,98756.50
2023-01-12T09:16:40.059Z,98748.29
2023-01-12T09:19:08.559Z,98745.09
2023-01-12T09:21:39.444Z,98738.72
2023-01-12T09:24:08.212Z,98738.35
2023-01-12T09:26:41.403Z,98735.52
2023-01-12T09:29:12.502Z,98741.69
2023-01-12T09:31:41.711Z,98736.38
2023-01-12T09:34:09.334Z,98728.20
2023-01-12T09:36:38.814Z,98726.95
2023-01-12T09:39:10.242Z,98720.02
2023-01-12T09:42:03.636Z,98720.91
2023-01-12T09:45:02.423Z,98730.33
2023-01-12T09:47:48.116Z,98726.08
2023-01-12T09:50:20.713Z,98725.09
2023-01-12T09:52:55.174Z,98717.30
2023-01-12T09:55:25.417Z,98707.67
2023-01-12T09:58:28.135Z,98705.86
2023-01-12T10:00:58.284Z,98708.79
2023-01-12T10:03:31.465Z,98707.99
2023-01-12T10:06:02.137Z,98704.64
2023-01-12T10:08:52.293Z,98705.73
2023-01-12T10:11:30.867Z,98701.33
2023-01-12T10:14:16.173Z,98698.94
2023-01-12T10:16:51.208Z,98699.79
2023-01-12T10:19:57.601Z,98697.52
2023-01-12T10:22:41.097Z,98692.52
2023-01-12T10:25:30.172Z,98694.59
2023-01-12T10:27:59.873Z,98690.52
2023-01-12T10:30:32.086Z,98680.69
2023-01-12T10:33:19.735Z,98681.81
2023-01-12T10:36:00.391Z,98687.59
2023-01-12T10:38:34.260Z,98686.03
2023-01-12T10:41:07.366Z,98692.02
2023-01-12T10:43:34.901Z,98689.65
2023-01-12T10:46:19.615Z,98684.50
2023-01-12T10:48:49.095Z,98683.02
2023-01-12T10:51:30.695Z,98676.29
2023-01-12T10:54:02.876Z,98673.05
2023-01-12T10:56:36.053Z,98669.75
2023-01-12T10:59:15.854Z,98674.74
2023-01-12T11:01:53.932Z,98681.73
2023-01-12T11:04:28.949Z,98682.87
2023-01-12T11:07:08.943Z,98680.68
2023-01-12T11:09:36.060Z,98672.31
2023-01-12T11:12:06.715Z,98671.74
2023-01-12T11:14:38.583Z,98669.38
2023-01-12T11:17:25.973Z,98666.05
2023-01-12T11:19:55.714Z,98669.17
2023-01-12T11:22:39.607Z,98668.54
2023-01-12T11:25:23.897Z,98668.31
2023-01-12T11:28:15.629Z,98661.36
2023-01-12T11:30:52.319Z,98661.50
2023-01-12T11:33:53.655Z,98653.27
2023-01-12T11:36:26.992Z,98647.09
2023-01-12T11:39:01.354Z,98642.85
2023-01-12T11:41:35.922Z,98643.00
2023-01-12T11:44:32.816Z,98637.48
2023-01-12T11:47:15.722Z,98631.70
2023-01-12T11:49:53.231Z,98626.96
2023-01-12T11:52:20.614Z,98626.61
2023-01-12T11:54:52.586Z,98630.02
2023-01-12T11:57:52.848Z,98627.27
2023-01-12T12:01:00.488Z,98624.98
2023-01-12T12:03:47.134Z,98623.69
2023-01-12T12:06:30.485Z,98616.60
2023-01-12T12:09:34.293Z,98619.88
2023-01-12T12:12:05.335Z,98613.77
2023-01-12T12:15:23.415Z,98609.99
2023-01-12T12:17:59.820Z,98608.05
2023-01-12T12:20:33.599Z,98608.98
2023-01-12T12:23:32.434Z,98605.58
2023-01-12T12:26:14.797Z,98602.52
2023-01-12T12:28:54.135Z,98600.64
2023-01-12T12:31:56.656Z,98603.77
2023-01-12T12:34:32.799Z,98610.31
2023-01-12T12:37:35.770Z,98607.75
2023-01-12T12:40:56.576Z,98610.90
2023-01-12T12:44:08.646Z,98604.53
2023-01-12T12:47:08.609Z,98598.25
2023-01-12T12:49:38.884Z,98593.95
2023-01-12T12:52:08.519Z,98585.31
2023-01-12T12:54:36.002Z,98583.20
2023-01-12T12:57:05.136Z,98577.18
2023-01-12T12:59:32.132Z,98579.88
2023-01-12T13:02:20.443Z,98578.77
2023-01-12T13:04:47.618Z,98580.59
2023-01-12T13:07:20.799Z,98577.56
2023-01-12T13:09:49.718Z,98574.42
2023-01-12T13:12:32.100Z,98570.61
2023-01-12T13:15:23.622Z,98571.50
2023-01-12T13:17:53.218Z,98571.75
2023-01-12T13:20:25.953Z,98568.06
2023-01-12T13:22:53.976Z,98566.41
2023-01-12T13:25:21.671Z,98566.80
2023-01-12T13:27:53.041Z,98568.95
2023-01-12T13:30:29.608Z,98565.45
2023-01-12T13:33:26.762Z,98556.19
2023-01-12T13:35:54.383Z,98553.04
2023-01-12T13:38:32.471Z,98553.52
2023-01-12T13:41:41.973Z,98548.91
2023-01-12T13:44:20.101Z,98546.70
2023-01-12T13:46:51.769Z,98546.67
2023-01-12T13:49:31.261Z,98548.55
2023-01-12T13:52:06.938Z,98545.94
2023-01-12T13:54:34.556Z,98544.58
2023-01-12T13:57:18.558Z,98543.92
2023-01-12T14:00:11.406Z,98547.58
2023-01-12T14:02:40.717Z,98542.48
2023-01-12T14:05:29.330Z,98542.82
2023-01-12T14:08:11.667Z,98540.02
2023-01-12T14:11:11.048Z,98537.38
2023-01-12T14:13:38.401Z,98537.17
2023-01-12T14:16:34.665Z,98531.15
2023-01-12T14:19:02.491Z,98530.11
2023-01-12T14:21:44.795Z,98527.95
2023-01-12T14:24:21.969Z,98524.47
2023-01-12T14:26:49.642Z,98521.90
2023-01-12T14:29:17.322Z,98524.04
2023-01-12T14:31:54.577Z,98525.91
2023-01-12T14:34:24.049Z,98521.88
2023-01-12T14:36:51.515Z,98522.54
2023-01-12T14:39:23.554Z,98522.13
2023-01-12T14:42:16.961Z,98519.55
2023-01-12T14:45:13.484Z,98524.64
2023-01-12T14:47:42.042Z,98525.52
2023-01-12T14:50:15.083Z,98526.55
2023-01-12T14:52:45.405Z,98530.30
2023-01-12T14:55:15.627Z,98533.07
2023-01-12T14:57:43.662Z,98537.34
2023-01-12T15:00:23.941Z,98536.71
2023-01-12T15:02:53.890Z,98536.58
2023-01-12T15:05:26.037Z,98537.46
2023-01-12T15:08:05.590Z,98537.82
2023-01-12T15:10:37.486Z,98538.02
2023-01-12T15:13:31.428Z,98534.26
2023-01-12T15:16:18.623Z,98535.36
2023-01-12T15:19:04.629Z,98533.16
2023-01-12T15:21:52.187Z,98528.73
2023-01-12T15:24:47.417Z,98526.40
2023-01-12T15:27:17.988Z,98528.09
2023-01-12T15:29:45.685Z,98529.21
2023-01-12T15:32:46.889Z,98528.28
2023-01-12T15:35:26.835Z,98533.70
2023-01-12T15:37:55.700Z,98528.37
2023-01-12T15:40:24.982Z,98531.06
2023-01-12T15:42:53.499Z,98533.23
2023-01-12T15:45:30.064Z,98533.10
2023-01-12T15:47:57.912Z,98526.76
2023-01-12T15:50:25.184Z,98528.26
2023-01-12T15:52:53.294Z,98531.89
2023-01-12T15:55:23.344Z,98525.80
2023-01-12T15:57:51.791Z,98523.64
2023-01-12T16:00:23.978Z,98521.23
2023-01-12T16:02:52.355Z,98521.64
2023-01-12T16:05:22.543Z,98518.31
2023-01-12T16:07:50.036Z,98513.98
2023-01-12T16:10:17.932Z,98517.37
2023-01-12T16:12:48.167Z,98516.55
2023-01-12T16:15:21.285Z,98516.61
2023-01-12T16:17:49.197Z,98512.64
2023-01-12T16:20:18.951Z,98512.16
2023-01-12T16:22:47.478Z,98514.20
2023-01-12T16:25:15.755Z,98510.36
2023-01-12T16:27:42.976Z,98507.45
2023-01-12T16:30:13.576Z,98502.89
2023-01-12T16:32:45.987Z,98498.23
2023-01-12T16:35:15.065Z,98504.15
2023-01-12T16:37:42.553Z,98498.69
2023-01-12T16:40:10.304Z,98492.94
2023-01-12T16:42:37.919Z,98489.46
2023-01-12T16:45:06.568Z,98492.93
2023-01-12T16:47:33.476Z,98490.92
2023-01-12T16:50:00.575Z,98489.66
2023-01-12T16:52:28.071Z,98489.23
2023-01-12T16:54:55.324Z,98492.50
2023-01-12T16:57:22.272Z,98494.40
2023-01-12T16:59:50.926Z,98496.23
2023-01-12T17:02:19.018Z,98491.87
2023-01-12T17:04:48.315Z,98487.66
2023-01-12T17:07:15.766Z,98485.08
2023-01-12T17:09:43.637Z,98484.38
2023-01-12T17:12:11.680Z,98483.04
2023-01-12T17:14:39.464Z,98482.23
2023-01-12T17:17:09.354Z,98481.81
2023-01-12T17:19:37.994Z,98483.61
2023-01-12T17:22:08.176Z,98479.23
2023-01-12T17:24:40.037Z,98480.48
2023-01-12T17:27:08.740Z,98481.27
2023-01-12T17:29:35.768Z,98480.38
2023-01-12T17:32:08.101Z,98476.29
2023-01-12T17:34:38.456Z,98474.92
2023-01-12T17:37:10.067Z,98472.73
2023-01-12T17:39:40.119Z,98472.82
2023-01-12T17:42:27.512Z,98475.05
2023-01-12T17:44:54.799Z,98468.54
2023-01-12T17:47:22.429Z,98465.98
2023-01-12T17:49:49.423Z,98467.58
2023-01-12T17:52:17.504Z,98462.83
2023-01-12T17:54:44.820Z,98462.32
2023-01-12T17:57:12.312Z,98461.46
2023-01-12T17:59:40.091Z,98466.40
2023-01-12T18:02:07.927Z,98465.65
2023-01-12T18:04:34.949Z,98457.77
2023-01-12T18:07:02.436Z,98453.19
2023-01-12T18:09:29.585Z,98447.55
2023-01-12T18:11:56.875Z,98441.06
2023-01-12T18:14:25.748Z,98431.93
2023-01-12T18:16:53.107Z,98434.50
2023-01-12T18:19:20.225Z,98439.80
2023-01-12T18:21:50.562Z,98438.27
2023-01-12T18:24:17.550Z,98442.73
2023-01-12T18:26:44.597Z,98440.60
2023-01-12T18:29:11.953Z,98432.70
2023-01-12T18:31:42.225Z,98428.19
2023-01-12T18:34:10.548Z,98428.40
2023-01-12T18:36:39.956Z,98425.46
2023-01-12T18:39:09.512Z,98422.98
2023-01-12T18:41:56.672Z,98424.12
2023-01-12T18:44:25.274Z,98424.80
2023-01-12T18:47:11.675Z,98424.19
2023-01-12T18:49:42.719Z,98417.16
2023-01-12T18:52:30.872Z,98418.09
2023-01-12T18:54:59.268Z,98418.98
2023-01-12T18:57:29.492Z,98415.42
2023-01-12T19:00:00.825Z,98417.02
2023-01-12T19:02:28.164Z,98414.77
2023-01-12T19:05:18.221Z,98412.52
2023-01-12T19:08:00.613Z,98411.25
2023-01-12T19:10:29.546Z,98410.30
2023-01-12T19:13:16.225Z,98406.81
2023-01-12T19:16:02.213Z,98408.13
2023-01-12T19:18:29.548Z,98413.98
2023-01-12T19:21:22.099Z,98409.01
2023-01-12T19:24:07.843Z,98412.29
2023-01-12T19:26:54.223Z,98413.75
2023-01-12T19:29:21.424Z,98413.12
2023-01-12T19:31:48.784Z,98409.52
2023-01-12T19:34:15.718Z,98408.23
2023-01-12T19:36:42.625Z,98411.98
2023-01-12T19:39:11.525Z,98410.89
2023-01-12T19:41:57.546Z,98412.25
2023-01-12T19:44:24.545Z,98411.48
2023-01-12T19:46:51.694Z,98412.48
2023-01-12T19:49:18.980Z,98406.31
2023-01-12T19:51:50.120Z,98405.25
2023-01-12T19:54:17.026Z,98407.14
2023-01-12T19:56:47.363Z,98402.66
2023-01-12T19:59:14.834Z,98401.55
2023-01-12T20:01:41.840Z,98405.57
2023-01-12T20:04:09.263Z,98404.77
2023-01-12T20:06:36.865Z,98409.70
2023-01-12T20:09:04.342Z,98406.71
2023-01-12T20:11:31.430Z,98407.55
2023-01-12T20:14:00.061Z,98408.05
2023-01-12T20:16:27.298Z,98407.50
2023-01-12T20:18:58.226Z,98412.55
2023-01-12T20:21:25.666Z,98414.09
2023-01-12T20:23:52.763Z,98412.30
2023-01-12T20:26:19.832Z,98402.48
2023-01-12T20:28:47.169Z,98402.58
2023-01-12T20:31:16.470Z,98403.95
2023-01-12T20:33:44.085Z,98398.52
2023-01-12T20:36:13.362Z,98401.09
2023-01-12T20:38:43.454Z,98408.97
2023-01-12T20:41:11.307Z,98407.48
2023-01-12T20:43:38.557Z,98407.00
2023-01-12T20:46:11.582Z,98408.60
2023-01-12T20:48:41.241Z,98408.75
2023-01-12T20:51:13.284Z,98403.63
2023-01-12T20:53:40.254Z,98399.70
2023-01-12T20:56:07.810Z,98401.28
2023-01-12T20:58:35.292Z,98401.20
2023-01-12T21:01:02.704Z,98401.03
2023-01-12T21:03:29.891Z,98402.63
2023-01-12T21:05:57.266Z,98403.86
2023-01-12T21:08:24.157Z,98402.55
2023-01-12T21:10:53.472Z,98399.90
2023-01-12T21:13:21.625Z,98399.52
2023-01-12T21:15:48.686Z,98398.98
2023-01-12T21:18:15.822Z,98398.16
2023-01-12T21:20:44.126Z,98396.02
2023-01-12T21:23:11.999Z,98389.79
2023-01-12T21:25:43.692Z,98391.77
2023-01-12T21:28:11.345Z,98390.55
2023-01-12T21:30:39.622Z,98387.84
2023-01-12T21:33:07.676Z,98392.48
2023-01-12T21:35:35.591Z,98392.84
2023-01-12T21:38:03.349Z,98394.35
2023-01-12T21:40:30.882Z,98393.61
2023-01-12T21:43:10.795Z,98394.44
2023-01-12T21:45:43.140Z,98390.83
2023-01-12T21:48:11.794Z,98396.61
2023-01-12T21:50:39.149Z,98394.48
2023-01-12T21:53:07.511Z,98392.88
2023-01-12T21:55:35.494Z,98384.25
2023-01-12T21:58:02.795Z,98382.72
2023-01-12T22:00:30.613Z,98381.55
2023-01-12T22:02:57.999Z,98378.40
2023-01-12T22:05:25.844Z,98378.41
2023-01-12T22:07:55.905Z,98375.27
2023-01-12T22:10:25.649Z,98376.16
2023-01-12T22:12:55.804Z,98379.45
2023-01-12T22:15:24.946Z,98384.84
2023-01-12T22:17:53.819Z,98388.22
2023-01-12T22:20:22.134Z,98384.97
2023-01-12T22:22:49.392Z,98378.27
2023-01-12T22:25:17.737Z,98372.71
2023-01-12T22:27:45.822Z,98374.04
2023-01-12T22:30:17.488Z,98374.11
2023-01-12T22:32:45.480Z,98373.73
2023-01-12T22:35:13.479Z,98372.95
2023-01-12T22:37:41.582Z,98370.84
2023-01-12T22:40:26.886Z,98369.08
2023-01-12T22:43:12.536Z,98368.83
2023-01-12T22:45:40.538Z,98370.27
2023-01-12T22:48:12.361Z,98366.13
2023-01-12T22:50:56.463Z,98354.38
2023-01-12T22:53:34.515Z,98354.59
2023-01-12T22:56:05.724Z,98360.72
2023-01-12T22:58:37.735Z,98367.48
2023-01-12T23:01:07.320Z,98365.42
2023-01-12T23:03:35.884Z,98361.83
2023-01-12T23:06:04.521Z,98356.73
2023-01-12T23:08:31.520Z,98357.60
2023-01-12T23:11:06.157Z,98361.85
2023-01-12T23:13:33.299Z,98366.95
2023-01-12T23:16:12.302Z,98364.17
2023-01-12T23:18:46.946Z,98351.60
2023-01-12T23:21:29.189Z,98349.31
2023-01-12T23:23:59.191Z,98345.05
2023-01-12T23:26:31.674Z,98341.88
2023-01-12T23:29:00.967Z,98340.90
2023-01-12T23:31:30.673Z,98336.25
2023-01-12T23:33:58.316Z,98335.52
2023-01-12T23:36:27.834Z,98334.78
2023-01-12T23:38:59.776Z,98333.30
2023-01-12T23:41:28.344Z,98336.14
2023-01-12T23:43:57.302Z,98343.15
2023-01-12T23:46:24.951Z,98341.49
2023-01-12T23:48:55.050Z,98339.34
2023-01-12T23:51:23.505Z,98338.53
2023-01-12T23:53:54.869Z,98337.45
2023-01-12T23:56:22.619Z,98333.48
2023-01-12T23:58:49.843Z,98332.98
